Portada
METAR-TAF:

METAR-TAF

Aeropuertos :

Tenerife Sur, España

Aeropuerto de Tenerife Sur

latitud: 28-03N, longitud: 016-34W, altitud: 64 m

Observación

El informe se hizo hace 34 minutos, a las 17:00 UTC
Viento 19 kt del este
Temperatura 23°C
Humedad 65%
Presión 1020 hPa
Visibilidad 10 km o más
Cielo nuboso a una altura de 4000 ft

METAR: GCTS 271700Z 08019KT 9999 BKN040 23/16 Q1020 NOSIG

Hora: 17:34 (17:34 UTC)

Pronóstico

El informe se hizo hace 3 horas y 34 minutos, a las 14:00 UTC
Pronóstico válido del 27 a las 15 UTC al 28 a las 15 UTC
Viento 19 kt del este-noreste
Visibilidad 10 km o más
Nubes dispersas a una altura de 3000 ft
Evolucionando progresivamente
del 27 a las 19 UTC al 27 a las 21 UTC
Viento 9 kt del noreste

TAF: GCTS 271400Z 2715/2815 07019KT 9999 SCT030 TX25/2814Z TN19/2807Z BECMG 2719/2721 05009KT

Observaciones y pronósticos meteorológicos de más de 4000 aeropuertos (mensajes METAR y TAF).

Los puntos amarillos y rojos representan las estaciones disponibles.

Ponga el ratón en el punto deseado para ver el nombre de la estación.

Haga clic para ver las observaciones y los pronósticos meteorológicos.

Para cambiar el mapa : haga clic en los botones verdes con una cruz de color negro para hacer un zoom, en el botón verde con un guión para alejar o en las flechas verdes para mapas adyacentes.


METAR-TAF: